createdAt,value
2024-02-29T00:01:45.488Z,30.52
2024-02-29T00:05:47.216Z,25.40
2024-02-29T00:09:48.828Z,20.15
2024-02-29T00:13:50.530Z,26.20
2024-02-29T00:17:52.366Z,24.40
2024-02-29T00:21:54.113Z,30.85
2024-02-29T00:25:55.606Z,36.05
2024-02-29T00:29:57.285Z,26.02
2024-02-29T00:33:58.900Z,19.38
2024-02-29T00:38:00.557Z,24.45
2024-02-29T00:42:02.056Z,41.30
2024-02-29T00:46:03.954Z,26.33
2024-02-29T00:50:06.069Z,25.23
2024-02-29T00:54:07.643Z,36.20
2024-02-29T00:58:09.283Z,29.75
2024-02-29T01:02:10.848Z,33.17
2024-02-29T01:06:12.673Z,42.88
2024-02-29T01:10:14.803Z,37.35
2024-02-29T01:14:16.390Z,33.75
2024-02-29T01:18:18.026Z,35.10
2024-02-29T01:22:19.651Z,28.63
2024-02-29T01:26:21.214Z,41.00
2024-02-29T01:30:22.735Z,37.33
2024-02-29T01:34:24.339Z,35.88
2024-02-29T01:38:25.909Z,27.83
2024-02-29T01:42:27.486Z,31.75
2024-02-29T01:46:29.188Z,29.13
2024-02-29T01:50:31.730Z,30.27
2024-02-29T01:54:33.439Z,33.55
2024-02-29T01:58:36.283Z,34.40
2024-02-29T02:02:39.669Z,28.65
2024-02-29T02:06:41.731Z,28.10
2024-02-29T02:10:43.322Z,25.02
2024-02-29T02:14:45.149Z,28.90
2024-02-29T02:18:46.723Z,28.20
2024-02-29T02:22:48.317Z,21.90
2024-02-29T02:26:49.887Z,18.67
2024-02-29T02:30:51.479Z,25.38
2024-02-29T02:34:53.002Z,25.10
2024-02-29T02:38:54.590Z,21.77
2024-02-29T02:42:56.507Z,24.33
2024-02-29T02:46:58.080Z,26.08
2024-02-29T02:50:59.673Z,24.65
2024-02-29T02:55:01.519Z,21.27
2024-02-29T02:59:03.096Z,20.38
2024-02-29T03:03:04.988Z,21.80
2024-02-29T03:07:06.546Z,23.25
2024-02-29T03:11:08.304Z,18.05
2024-02-29T03:15:10.219Z,24.17
2024-02-29T03:19:11.819Z,21.77
2024-02-29T03:23:13.352Z,19.08
2024-02-29T03:27:15.078Z,23.20
2024-02-29T03:31:16.692Z,24.40
2024-02-29T03:35:18.448Z,18.27
2024-02-29T03:39:20.046Z,21.73
2024-02-29T03:43:21.608Z,20.85
2024-02-29T03:47:23.133Z,20.60
2024-02-29T03:55:30.231Z,18.25
2024-02-29T03:59:32.600Z,21.92
2024-02-29T04:03:34.130Z,18.92
2024-02-29T04:07:39.338Z,19.35
2024-02-29T04:11:40.953Z,22.17
2024-02-29T04:15:42.572Z,21.20
2024-02-29T04:19:44.730Z,23.73
2024-02-29T04:23:46.280Z,17.33
2024-02-29T04:27:47.861Z,18.00
2024-02-29T04:31:49.501Z,19.98
2024-02-29T04:35:51.023Z,18.80
2024-02-29T04:39:52.882Z,18.55
2024-02-29T04:43:54.509Z,17.95
2024-02-29T04:47:56.624Z,18.20
2024-02-29T04:51:58.230Z,15.48
2024-02-29T04:56:01.011Z,18.88
2024-02-29T05:00:02.594Z,16.17
2024-02-29T05:04:04.778Z,18.83
2024-02-29T05:08:06.334Z,17.92
2024-02-29T05:12:08.163Z,14.10
2024-02-29T05:16:09.664Z,18.17
2024-02-29T05:20:11.644Z,17.90
2024-02-29T05:24:13.257Z,15.93
2024-02-29T05:28:15.003Z,21.13
2024-02-29T05:32:18.758Z,18.73
2024-02-29T05:36:20.724Z,20.77
2024-02-29T05:40:22.476Z,15.68
2024-02-29T05:44:24.160Z,17.65
2024-02-29T05:48:25.909Z,16.63
2024-02-29T05:52:27.451Z,19.25
2024-02-29T05:56:29.135Z,21.50
2024-02-29T06:00:30.703Z,22.63
2024-02-29T06:04:32.189Z,18.02
2024-02-29T06:08:33.759Z,17.02
2024-02-29T06:12:35.596Z,18.92
2024-02-29T06:16:37.347Z,17.67
2024-02-29T06:20:38.862Z,15.30
2024-02-29T06:24:40.391Z,14.77
2024-02-29T06:28:42.238Z,17.75
2024-02-29T06:32:45.730Z,16.98
2024-02-29T06:36:47.359Z,18.50
2024-02-29T06:40:49.105Z,18.17
2024-02-29T06:44:52.637Z,20.40
2024-02-29T06:48:54.195Z,19.80
2024-02-29T06:52:56.040Z,16.00
2024-02-29T06:56:57.706Z,17.65
2024-02-29T07:00:59.433Z,18.08
2024-02-29T07:05:01.047Z,19.17
2024-02-29T07:09:02.719Z,19.98
2024-02-29T07:13:04.551Z,19.67
2024-02-29T07:17:06.908Z,18.10
2024-02-29T07:21:08.431Z,20.35
2024-02-29T07:25:10.278Z,21.08
2024-02-29T07:29:12.759Z,18.15
2024-02-29T07:33:14.341Z,21.27
2024-02-29T07:37:16.041Z,19.67
2024-02-29T07:41:17.629Z,22.70
2024-02-29T07:45:21.071Z,23.20
2024-02-29T07:49:23.064Z,16.73
2024-02-29T07:53:24.682Z,18.27
2024-02-29T07:57:26.158Z,19.70
2024-02-29T08:01:28.520Z,17.85
2024-02-29T08:05:30.286Z,19.92
2024-02-29T08:09:31.835Z,23.30
2024-02-29T08:13:33.318Z,18.60
2024-02-29T08:17:34.843Z,19.08
2024-02-29T08:21:40.073Z,21.88
2024-02-29T08:25:42.520Z,20.58
2024-02-29T08:29:44.059Z,20.67
2024-02-29T08:33:45.603Z,20.92
2024-02-29T08:37:47.177Z,20.13
2024-02-29T08:41:48.784Z,18.42
2024-02-29T08:45:53.208Z,21.13
2024-02-29T08:49:54.915Z,20.05
2024-02-29T08:53:56.448Z,19.58
2024-02-29T08:57:58.048Z,21.90
2024-02-29T09:02:00.894Z,21.48
2024-02-29T09:06:02.492Z,22.33
2024-02-29T09:10:04.351Z,21.55
2024-02-29T09:14:05.953Z,21.63
2024-02-29T09:18:08.124Z,19.45
2024-02-29T09:22:10.063Z,25.30
2024-02-29T09:26:14.154Z,23.38
2024-02-29T09:30:15.887Z,20.45
2024-02-29T09:34:17.876Z,20.90
2024-02-29T09:38:19.490Z,21.20
2024-02-29T09:42:21.063Z,23.27
2024-02-29T09:46:22.821Z,25.92
2024-02-29T09:50:24.375Z,23.77
2024-02-29T09:54:27.366Z,24.52
2024-02-29T09:58:30.252Z,24.50
2024-02-29T10:02:33.529Z,25.10
2024-02-29T10:06:35.090Z,22.05
2024-02-29T10:10:36.781Z,22.17
2024-02-29T10:14:38.814Z,17.98
2024-02-29T10:18:40.701Z,20.10
2024-02-29T10:22:43.274Z,23.17
2024-02-29T10:26:45.223Z,18.90
2024-02-29T10:30:55.486Z,15.95
2024-02-29T10:34:57.081Z,11.73
2024-02-29T10:38:59.919Z,13.73
2024-02-29T10:43:03.590Z,17.83
2024-02-29T10:47:08.959Z,18.98
2024-02-29T10:51:45.508Z,16.65
2024-02-29T11:00:01.940Z,20.27
2024-02-29T11:04:05.040Z,17.05
2024-02-29T11:08:07.025Z,15.93
2024-02-29T11:12:10.135Z,14.40
2024-02-29T11:16:14.386Z,17.92
2024-02-29T11:20:22.738Z,18.73
2024-02-29T11:24:24.369Z,17.15
2024-02-29T11:28:42.718Z,15.68
2024-02-29T11:32:44.586Z,16.60
2024-02-29T11:36:48.280Z,15.68
2024-02-29T11:40:50.077Z,15.82
2024-02-29T11:44:51.575Z,14.10
2024-02-29T11:48:56.101Z,14.38
2024-02-29T11:53:02.158Z,13.90
2024-02-29T11:57:05.644Z,18.42
2024-02-29T12:01:07.711Z,16.60
2024-02-29T12:05:10.086Z,15.45
2024-02-29T12:09:13.657Z,17.83
2024-02-29T12:13:15.583Z,14.00
2024-02-29T12:17:19.941Z,15.00
2024-02-29T12:21:21.531Z,17.48
2024-02-29T12:25:23.638Z,15.90
2024-02-29T12:29:25.268Z,18.08
2024-02-29T12:33:29.898Z,15.63
2024-02-29T12:37:31.725Z,20.55
2024-02-29T12:41:33.258Z,19.67
2024-02-29T12:45:34.830Z,17.02
2024-02-29T12:49:36.380Z,20.30
2024-02-29T12:53:38.226Z,21.67
2024-02-29T12:57:39.914Z,17.23
2024-02-29T13:01:42.282Z,18.17
2024-02-29T13:05:44.007Z,17.17
2024-02-29T13:09:45.590Z,17.20
2024-02-29T13:13:47.193Z,17.48
2024-02-29T13:17:48.816Z,20.40
2024-02-29T13:21:50.460Z,19.05
2024-02-29T13:25:52.412Z,18.63
2024-02-29T13:29:56.656Z,21.25
2024-02-29T13:33:59.110Z,21.85
2024-02-29T13:38:00.723Z,22.38
2024-02-29T13:42:06.526Z,15.45
2024-02-29T13:46:08.115Z,17.17
2024-02-29T13:50:10.004Z,17.25
2024-02-29T13:54:12.293Z,18.30
2024-02-29T13:58:14.080Z,20.67
2024-02-29T14:02:15.701Z,17.67
2024-02-29T14:06:17.971Z,21.15
2024-02-29T14:10:19.545Z,21.08
2024-02-29T14:14:21.168Z,21.48
2024-02-29T14:18:22.687Z,16.77
2024-02-29T14:22:24.332Z,17.67
2024-02-29T14:26:25.955Z,20.80
2024-02-29T14:30:27.501Z,19.85
2024-02-29T14:34:29.264Z,19.85
2024-02-29T14:38:30.822Z,19.00
2024-02-29T14:42:32.428Z,19.90
2024-02-29T14:46:34.386Z,18.83
2024-02-29T14:50:35.944Z,20.15
2024-02-29T14:54:37.555Z,20.85
2024-02-29T14:58:39.217Z,17.08
2024-02-29T15:02:41.217Z,20.83
2024-02-29T15:06:45.302Z,19.33
2024-02-29T15:10:47.295Z,26.70
2024-02-29T15:14:48.927Z,21.73
2024-02-29T15:18:50.509Z,19.23
2024-02-29T15:22:52.040Z,18.63
2024-02-29T15:26:59.867Z,20.90
2024-02-29T15:31:01.490Z,18.90
2024-02-29T15:35:03.311Z,17.33
2024-02-29T15:39:04.805Z,20.52
2024-02-29T15:43:06.377Z,23.60
2024-02-29T15:47:07.959Z,18.02
2024-02-29T15:51:09.606Z,24.52
2024-02-29T15:55:11.347Z,22.30
2024-02-29T15:59:14.808Z,18.15
2024-02-29T16:03:16.621Z,18.20
2024-02-29T16:07:18.257Z,21.05
2024-02-29T16:11:23.269Z,17.63
2024-02-29T16:15:28.568Z,21.75
2024-02-29T16:19:30.191Z,20.17
2024-02-29T16:23:31.788Z,19.15
2024-02-29T16:27:33.656Z,20.10
2024-02-29T16:31:35.252Z,25.95
2024-02-29T16:35:36.958Z,21.50
2024-02-29T16:39:38.696Z,22.10
2024-02-29T16:43:40.268Z,23.85
2024-02-29T16:47:41.878Z,20.88
2024-02-29T16:51:43.544Z,17.15
2024-02-29T16:55:45.224Z,24.58
2024-02-29T16:59:46.739Z,18.02
2024-02-29T17:03:49.237Z,17.73
2024-02-29T17:07:50.742Z,17.20
2024-02-29T17:11:52.445Z,24.10
2024-02-29T17:15:54.164Z,18.00
2024-02-29T17:19:56.313Z,18.05
2024-02-29T17:23:57.932Z,16.63
2024-02-29T17:27:59.578Z,18.65
2024-02-29T17:32:01.130Z,16.13
2024-02-29T17:36:02.702Z,12.50
2024-02-29T17:40:04.455Z,14.68
2024-02-29T17:44:06.394Z,11.40
2024-02-29T17:48:07.925Z,9.43
2024-02-29T17:52:09.617Z,25.48
2024-02-29T17:56:13.068Z,16.67
2024-02-29T18:00:15.874Z,14.48
2024-02-29T18:04:17.596Z,13.18
2024-02-29T18:08:19.245Z,13.77
2024-02-29T18:12:20.741Z,13.18
2024-02-29T18:16:22.445Z,13.05
2024-02-29T18:20:24.055Z,15.77
2024-02-29T18:24:25.779Z,13.60
2024-02-29T18:28:27.356Z,11.82
2024-02-29T18:32:29.042Z,10.18
2024-02-29T18:36:30.594Z,11.15
2024-02-29T18:40:32.265Z,13.75
2024-02-29T18:44:34.036Z,12.60
2024-02-29T18:48:36.801Z,15.90
2024-02-29T18:52:40.047Z,14.10
2024-02-29T18:56:42.084Z,19.83
2024-02-29T19:00:43.719Z,18.10
2024-02-29T19:04:45.641Z,21.50
2024-02-29T19:08:47.974Z,15.32
2024-02-29T19:12:49.735Z,13.60
2024-02-29T19:16:53.533Z,14.20
2024-02-29T19:20:55.900Z,12.88
2024-02-29T19:24:58.334Z,12.10
2024-02-29T19:29:00.028Z,14.68
2024-02-29T19:33:01.763Z,17.42
2024-02-29T19:37:03.461Z,15.32
2024-02-29T19:41:05.381Z,14.75
2024-02-29T19:45:09.378Z,12.60
2024-02-29T19:49:10.936Z,15.20
2024-02-29T19:53:12.616Z,15.38
2024-02-29T19:57:14.131Z,18.63
2024-02-29T20:01:15.714Z,16.10
2024-02-29T20:05:17.656Z,19.10
2024-02-29T20:09:19.248Z,14.52
2024-02-29T20:13:20.925Z,15.75
2024-02-29T20:17:22.554Z,14.10
2024-02-29T20:21:24.096Z,12.93
2024-02-29T20:25:30.273Z,13.02
2024-02-29T20:29:31.898Z,13.85
2024-02-29T20:33:33.464Z,19.25
2024-02-29T20:37:35.062Z,15.85
2024-02-29T20:41:36.641Z,33.65
2024-02-29T20:45:38.175Z,11.60
2024-02-29T20:49:39.823Z,15.02
2024-02-29T20:53:41.348Z,13.65
2024-02-29T20:57:44.194Z,13.63
2024-02-29T21:01:46.075Z,15.80
2024-02-29T21:05:47.973Z,16.20
2024-02-29T21:09:49.507Z,18.98
2024-02-29T21:13:51.073Z,14.10
2024-02-29T21:17:54.368Z,16.10
2024-02-29T21:21:56.124Z,13.93
2024-02-29T21:25:57.908Z,19.60
2024-02-29T21:29:59.778Z,15.18
2024-02-29T21:34:01.368Z,16.80
2024-02-29T21:38:03.075Z,14.85
2024-02-29T21:42:05.216Z,17.63
2024-02-29T21:46:08.615Z,15.52
2024-02-29T21:50:10.840Z,13.73
2024-02-29T21:54:12.442Z,9.50
2024-02-29T21:58:14.133Z,12.55
2024-02-29T22:02:15.797Z,16.63
2024-02-29T22:06:17.333Z,16.63
2024-02-29T22:10:19.087Z,15.73
2024-02-29T22:14:20.619Z,12.68
2024-02-29T22:18:22.277Z,12.55
2024-02-29T22:22:23.969Z,10.95
2024-02-29T22:26:25.758Z,15.27
2024-02-29T22:30:27.612Z,14.02
2024-02-29T22:34:29.749Z,15.30
2024-02-29T22:38:31.627Z,15.50
2024-02-29T22:42:33.740Z,15.60
2024-02-29T22:46:35.346Z,16.73
2024-02-29T22:50:36.993Z,11.93
2024-02-29T22:54:38.551Z,14.32
2024-02-29T22:58:40.145Z,13.85
2024-02-29T23:02:42.803Z,16.13
2024-02-29T23:06:44.481Z,13.68
2024-02-29T23:10:46.273Z,12.57
2024-02-29T23:14:48.014Z,14.90
2024-02-29T23:18:49.547Z,12.65
2024-02-29T23:22:53.114Z,15.20
2024-02-29T23:26:54.650Z,16.25
2024-02-29T23:30:56.255Z,12.85
2024-02-29T23:34:57.792Z,14.02
2024-02-29T23:38:59.438Z,16.20
2024-02-29T23:43:01.026Z,17.08
2024-02-29T23:47:02.623Z,14.63
2024-02-29T23:51:04.350Z,14.40
2024-02-29T23:55:06.446Z,14.68
2024-02-29T23:59:08.076Z,14.40
